createdAt,value
2022-08-30T00:00:16.716Z,6.00
2022-08-30T00:02:43.761Z,5.80
2022-08-30T00:05:11.136Z,5.67
2022-08-30T00:07:38.055Z,7.17
2022-08-30T00:10:05.650Z,6.27
2022-08-30T00:12:32.848Z,6.70
2022-08-30T00:14:59.771Z,7.40
2022-08-30T00:17:26.722Z,7.13
2022-08-30T00:19:55.986Z,7.17
2022-08-30T00:22:22.804Z,6.70
2022-08-30T00:24:49.735Z,6.80
2022-08-30T00:27:16.995Z,6.67
2022-08-30T00:29:43.785Z,6.70
2022-08-30T00:32:11.363Z,5.90
2022-08-30T00:34:38.172Z,5.53
2022-08-30T00:37:04.935Z,5.90
2022-08-30T00:39:31.763Z,6.40
2022-08-30T00:41:58.507Z,5.80
2022-08-30T00:44:25.370Z,5.97
2022-08-30T00:46:52.096Z,6.07
2022-08-30T00:49:18.936Z,5.67
2022-08-30T00:51:46.183Z,6.10
2022-08-30T00:54:13.181Z,6.37
2022-08-30T00:56:40.027Z,6.07
2022-08-30T00:59:08.377Z,5.90
2022-08-30T01:01:37.757Z,5.80
2022-08-30T01:04:06.286Z,6.20
2022-08-30T01:06:34.184Z,5.73
2022-08-30T01:09:02.075Z,4.40
2022-08-30T01:11:29.399Z,6.43
2022-08-30T01:13:56.679Z,6.37
2022-08-30T01:16:25.573Z,5.63
2022-08-30T01:18:57.326Z,6.00
2022-08-30T01:21:40.388Z,5.50
2022-08-30T01:24:07.742Z,5.70
2022-08-30T01:26:35.163Z,5.90
2022-08-30T01:29:08.257Z,4.93
2022-08-30T01:31:37.115Z,6.10
2022-08-30T01:34:08.064Z,6.40
2022-08-30T01:36:37.798Z,6.00
2022-08-30T01:39:13.236Z,5.47
2022-08-30T01:41:40.144Z,4.73
2022-08-30T01:44:10.429Z,5.60
2022-08-30T01:46:45.827Z,6.43
2022-08-30T01:49:15.937Z,5.30
2022-08-30T01:51:42.886Z,6.00
2022-08-30T01:54:10.415Z,6.17
2022-08-30T01:56:37.684Z,6.00
2022-08-30T01:59:04.915Z,6.30
2022-08-30T02:01:33.719Z,6.70
2022-08-30T02:04:00.574Z,6.00
2022-08-30T02:06:27.587Z,5.60
2022-08-30T02:08:54.537Z,5.53
2022-08-30T02:11:21.476Z,6.00
2022-08-30T02:13:48.327Z,6.80
2022-08-30T02:16:17.951Z,6.00
2022-08-30T02:18:45.399Z,6.00
2022-08-30T02:21:12.948Z,6.57
2022-08-30T02:23:39.998Z,6.30
2022-08-30T02:26:06.924Z,6.27
2022-08-30T02:28:33.688Z,5.50
2022-08-30T02:31:01.269Z,5.10
2022-08-30T02:33:28.246Z,5.30
2022-08-30T02:35:56.236Z,5.90
2022-08-30T02:38:23.918Z,5.90
2022-08-30T02:40:51.490Z,4.93
2022-08-30T02:43:19.916Z,4.70
2022-08-30T02:45:46.859Z,6.47
2022-08-30T02:48:14.057Z,5.77
2022-08-30T02:50:45.735Z,6.10
2022-08-30T02:53:14.438Z,5.90
2022-08-30T02:55:43.485Z,5.93
2022-08-30T02:58:10.786Z,6.07
2022-08-30T03:00:37.956Z,4.53
2022-08-30T03:03:05.044Z,5.70
2022-08-30T03:05:33.587Z,5.90
2022-08-30T03:08:00.777Z,5.40
2022-08-30T03:10:28.936Z,5.87
2022-08-30T03:12:56.357Z,5.10
2022-08-30T03:15:26.748Z,5.40
2022-08-30T03:17:55.038Z,5.83
2022-08-30T03:20:22.249Z,5.73
2022-08-30T03:22:49.095Z,6.10
2022-08-30T03:25:16.693Z,4.90
2022-08-30T03:27:43.539Z,5.77
2022-08-30T03:30:10.967Z,6.20
2022-08-30T03:32:37.857Z,5.70
2022-08-30T03:35:05.616Z,6.77
2022-08-30T03:37:32.656Z,6.90
2022-08-30T03:39:59.515Z,7.00
2022-08-30T03:42:26.397Z,5.60
2022-08-30T03:44:54.417Z,5.80
2022-08-30T03:47:21.285Z,6.30
2022-08-30T03:49:48.077Z,5.20
2022-08-30T03:52:14.906Z,6.63
2022-08-30T03:54:43.097Z,7.77
2022-08-30T03:57:13.360Z,7.67
2022-08-30T03:59:46.990Z,7.20
2022-08-30T04:02:13.910Z,6.80
2022-08-30T04:04:40.709Z,7.70
2022-08-30T04:07:07.536Z,6.70
2022-08-30T04:09:34.316Z,7.60
2022-08-30T04:12:01.107Z,6.87
2022-08-30T04:14:27.846Z,7.33
2022-08-30T04:16:54.594Z,7.50
2022-08-30T04:19:21.344Z,7.13
2022-08-30T04:21:48.017Z,7.73
2022-08-30T04:24:14.755Z,7.13
2022-08-30T04:26:41.434Z,8.10
2022-08-30T04:29:08.140Z,7.00
2022-08-30T04:31:34.884Z,6.67
2022-08-30T04:34:01.522Z,6.03
2022-08-30T04:36:28.291Z,6.80
2022-08-30T04:38:55.198Z,6.87
2022-08-30T04:41:24.712Z,6.83
2022-08-30T04:43:51.426Z,6.27
2022-08-30T04:46:19.438Z,7.03
2022-08-30T04:48:46.686Z,6.27
2022-08-30T04:51:15.764Z,7.40
2022-08-30T04:53:43.203Z,5.70
2022-08-30T04:56:16.526Z,7.47
2022-08-30T04:58:47.542Z,6.80
2022-08-30T05:01:18.801Z,7.03
2022-08-30T05:03:47.825Z,7.60
2022-08-30T05:06:15.298Z,7.43
2022-08-30T05:08:46.243Z,8.40
2022-08-30T05:11:14.896Z,7.93
2022-08-30T05:13:41.538Z,6.97
2022-08-30T05:16:08.873Z,9.60
2022-08-30T05:18:36.805Z,8.60
2022-08-30T05:21:12.755Z,8.20
2022-08-30T05:23:40.126Z,8.53
2022-08-30T05:26:10.012Z,7.90
2022-08-30T05:28:37.252Z,8.60
2022-08-30T05:31:13.902Z,9.70
2022-08-30T05:33:41.372Z,11.20
2022-08-30T05:36:08.910Z,11.63
2022-08-30T05:38:35.726Z,11.27
2022-08-30T05:41:07.829Z,10.80
2022-08-30T05:43:38.328Z,12.17
2022-08-30T05:46:08.373Z,11.53
2022-08-30T05:48:36.366Z,12.20
2022-08-30T05:51:23.479Z,17.70
2022-08-30T05:53:52.377Z,18.30
2022-08-30T05:56:25.827Z,16.93
2022-08-30T05:58:53.415Z,17.27
2022-08-30T06:01:24.915Z,16.17
2022-08-30T06:03:52.380Z,19.50
2022-08-30T06:06:19.263Z,20.97
2022-08-30T06:08:47.475Z,18.90
2022-08-30T06:11:15.506Z,17.40
2022-08-30T06:13:42.325Z,17.83
2022-08-30T06:16:12.537Z,18.50
2022-08-30T06:18:39.494Z,19.47
2022-08-30T06:21:06.550Z,18.20
2022-08-30T06:23:33.392Z,19.17
2022-08-30T06:26:05.417Z,18.00
2022-08-30T06:28:32.394Z,17.80
2022-08-30T06:30:59.301Z,20.00
2022-08-30T06:33:26.177Z,20.83
2022-08-30T06:35:58.807Z,18.07
2022-08-30T06:38:27.003Z,20.03
2022-08-30T06:40:53.919Z,17.77
2022-08-30T06:43:21.024Z,17.83
2022-08-30T06:45:48.114Z,18.20
2022-08-30T06:48:15.071Z,16.50
2022-08-30T06:50:42.241Z,17.50
2022-08-30T06:53:09.656Z,16.10
2022-08-30T06:55:37.497Z,16.50
2022-08-30T06:58:05.162Z,16.30
2022-08-30T07:00:31.934Z,14.40
2022-08-30T07:02:59.089Z,16.30
2022-08-30T07:05:25.894Z,15.43
2022-08-30T07:07:55.387Z,12.90
2022-08-30T07:10:22.147Z,14.43
2022-08-30T07:12:49.204Z,13.03
2022-08-30T07:15:16.459Z,10.90
2022-08-30T07:18:01.568Z,12.70
2022-08-30T07:20:39.911Z,13.07
2022-08-30T07:23:07.637Z,11.53
2022-08-30T07:25:34.468Z,12.40
2022-08-30T07:28:01.169Z,10.10
2022-08-30T07:30:27.947Z,10.70
2022-08-30T07:32:54.718Z,10.60
2022-08-30T07:35:21.546Z,8.70
2022-08-30T07:37:48.399Z,8.27
2022-08-30T07:40:15.353Z,9.13
2022-08-30T07:42:42.155Z,7.47
2022-08-30T07:45:09.898Z,8.10
2022-08-30T07:47:36.846Z,8.93
2022-08-30T07:50:06.426Z,9.20
2022-08-30T07:52:33.778Z,7.50
2022-08-30T07:55:01.519Z,9.10
2022-08-30T07:57:31.657Z,9.40
2022-08-30T07:59:58.427Z,8.80
2022-08-30T08:02:25.457Z,8.10
2022-08-30T08:04:52.396Z,8.47
2022-08-30T08:07:19.457Z,7.90
2022-08-30T08:09:46.216Z,7.53
2022-08-30T08:12:13.335Z,7.73
2022-08-30T08:14:41.511Z,8.40
2022-08-30T08:17:08.294Z,7.90
2022-08-30T08:19:35.064Z,8.77
2022-08-30T08:22:20.593Z,9.70
2022-08-30T08:24:47.796Z,8.47
2022-08-30T08:27:14.495Z,7.50
2022-08-30T08:29:41.267Z,7.73
2022-08-30T08:32:08.207Z,7.90
2022-08-30T08:34:36.074Z,8.77
2022-08-30T08:37:03.087Z,7.80
2022-08-30T08:39:29.874Z,8.37
2022-08-30T08:42:17.035Z,8.70
2022-08-30T08:45:00.459Z,7.87
2022-08-30T08:47:39.434Z,7.20
2022-08-30T08:50:12.544Z,7.40
2022-08-30T08:53:45.402Z,7.07
2022-08-30T08:56:15.927Z,6.90
2022-08-30T08:58:44.016Z,8.17
2022-08-30T09:01:13.406Z,6.50
2022-08-30T09:03:40.517Z,6.20
2022-08-30T09:06:45.245Z,6.63
2022-08-30T09:09:13.337Z,7.87
2022-08-30T09:11:40.996Z,7.03
2022-08-30T09:14:15.390Z,7.17
2022-08-30T09:16:47.177Z,7.60
2022-08-30T09:19:38.816Z,6.83
2022-08-30T09:22:42.756Z,7.47
2022-08-30T09:25:13.457Z,7.63
2022-08-30T09:27:42.524Z,6.20
2022-08-30T09:30:14.454Z,7.27
2022-08-30T09:32:54.996Z,7.10
2022-08-30T09:35:34.836Z,8.33
2022-08-30T09:38:10.336Z,7.27
2022-08-30T09:40:42.726Z,8.20
2022-08-30T09:43:16.707Z,6.80
2022-08-30T09:45:47.521Z,7.67
2022-08-30T09:48:40.996Z,7.00
2022-08-30T09:51:10.957Z,6.63
2022-08-30T09:54:16.752Z,6.80
2022-08-30T09:56:55.312Z,6.30
2022-08-30T09:59:49.429Z,6.30
2022-08-30T10:02:33.007Z,7.00
2022-08-30T10:05:27.107Z,5.90
2022-08-30T10:08:15.094Z,6.90
2022-08-30T10:11:04.397Z,6.90
2022-08-30T10:13:44.946Z,5.90
2022-08-30T10:16:19.605Z,7.33
2022-08-30T10:19:04.275Z,7.33
2022-08-30T10:21:41.086Z,6.50
2022-08-30T10:24:14.226Z,6.17
2022-08-30T10:27:07.817Z,6.30
2022-08-30T10:29:40.635Z,6.60
2022-08-30T10:32:24.924Z,6.00
2022-08-30T10:34:56.734Z,7.07
2022-08-30T10:37:29.196Z,6.70
2022-08-30T10:40:22.136Z,5.30
2022-08-30T10:42:49.847Z,6.00
2022-08-30T10:45:17.704Z,6.53
2022-08-30T10:48:00.830Z,5.80
2022-08-30T10:50:41.267Z,5.77
2022-08-30T10:53:22.476Z,5.50
2022-08-30T10:55:52.524Z,5.13
2022-08-30T10:58:19.666Z,5.23
2022-08-30T11:01:14.923Z,4.73
2022-08-30T11:04:09.297Z,6.90
2022-08-30T11:06:47.796Z,6.07
2022-08-30T11:09:44.777Z,4.83
2022-08-30T11:12:37.402Z,4.87
2022-08-30T11:15:25.203Z,5.57
2022-08-30T11:18:10.159Z,5.43
2022-08-30T11:20:47.053Z,4.73
2022-08-30T11:23:32.669Z,4.47
2022-08-30T11:26:08.967Z,4.77
2022-08-30T11:28:46.381Z,4.57
2022-08-30T11:31:22.633Z,4.80
2022-08-30T11:33:59.593Z,5.70
2022-08-30T11:36:37.766Z,5.60
2022-08-30T11:39:06.174Z,4.57
2022-08-30T11:41:42.095Z,4.63
2022-08-30T11:44:21.446Z,4.90
2022-08-30T11:46:49.905Z,4.90
2022-08-30T11:49:19.587Z,4.23
2022-08-30T11:52:26.252Z,4.10
2022-08-30T11:55:23.184Z,4.53
2022-08-30T11:57:52.526Z,4.40
2022-08-30T12:00:34.947Z,4.30
2022-08-30T12:03:05.627Z,3.67
2022-08-30T12:05:38.853Z,4.03
2022-08-30T12:08:20.675Z,3.70
2022-08-30T12:10:54.665Z,4.57
2022-08-30T12:13:37.058Z,3.70
2022-08-30T12:16:12.610Z,3.60
2022-08-30T12:19:00.919Z,2.90
2022-08-30T12:21:43.646Z,2.93
2022-08-30T12:24:21.495Z,4.23
2022-08-30T12:26:51.453Z,4.27
2022-08-30T12:29:29.978Z,3.50
2022-08-30T12:31:59.437Z,3.30
2022-08-30T12:34:30.846Z,3.67
2022-08-30T12:37:04.853Z,3.60
2022-08-30T12:39:43.696Z,3.30
2022-08-30T12:42:26.892Z,3.97
2022-08-30T12:44:57.988Z,3.70
2022-08-30T12:47:45.968Z,4.00
2022-08-30T12:50:22.209Z,4.37
2022-08-30T12:53:00.876Z,3.77
2022-08-30T12:55:35.899Z,3.67
2022-08-30T12:58:11.306Z,3.03
2022-08-30T13:00:39.730Z,3.83
2022-08-30T13:03:26.140Z,4.00
2022-08-30T13:05:57.610Z,2.90
2022-08-30T13:08:37.345Z,3.40
2022-08-30T13:11:08.507Z,3.20
2022-08-30T13:13:51.910Z,3.50
2022-08-30T13:16:20.725Z,3.70
2022-08-30T13:18:49.736Z,3.50
2022-08-30T13:21:21.875Z,4.03
2022-08-30T13:23:50.618Z,3.27
2022-08-30T13:26:21.090Z,3.20
2022-08-30T13:28:52.980Z,3.43
2022-08-30T13:31:20.501Z,3.00
2022-08-30T13:33:53.165Z,3.50
2022-08-30T13:36:23.053Z,3.37
2022-08-30T13:38:51.875Z,3.20
2022-08-30T13:41:20.904Z,3.33
2022-08-30T13:46:35.870Z,3.50
2022-08-30T13:49:06.522Z,3.53
2022-08-30T13:51:33.876Z,3.53
2022-08-30T13:54:02.652Z,2.60
2022-08-30T13:56:32.163Z,2.97
2022-08-30T13:58:59.666Z,3.40
2022-08-30T14:01:30.016Z,4.30
2022-08-30T14:04:16.752Z,3.77
2022-08-30T14:09:30.952Z,3.73
2022-08-30T14:11:57.736Z,3.73
2022-08-30T14:14:41.866Z,3.30
2022-08-30T14:17:09.907Z,3.57
2022-08-30T14:19:36.706Z,3.47
2022-08-30T14:22:03.623Z,3.27
2022-08-30T14:24:30.445Z,3.37
2022-08-30T14:26:57.231Z,3.23
2022-08-30T14:29:30.006Z,4.30
2022-08-30T14:31:58.575Z,3.00
2022-08-30T14:34:27.186Z,3.30
2022-08-30T14:36:54.167Z,3.93
2022-08-30T14:39:21.746Z,3.80
2022-08-30T14:41:51.268Z,3.70
2022-08-30T14:44:19.416Z,2.90
2022-08-30T14:46:46.606Z,4.17
2022-08-30T14:49:14.606Z,3.57
2022-08-30T14:51:42.417Z,3.33
2022-08-30T14:54:10.164Z,3.30
2022-08-30T14:56:38.115Z,3.77
2022-08-30T14:59:05.691Z,3.40
2022-08-30T15:01:32.696Z,3.40
2022-08-30T15:04:03.983Z,3.03
2022-08-30T15:06:34.904Z,4.47
2022-08-30T15:09:05.268Z,3.80
2022-08-30T15:11:33.272Z,3.40
2022-08-30T15:14:00.468Z,3.60
2022-08-30T15:16:33.068Z,3.30
2022-08-30T15:19:00.642Z,2.83
2022-08-30T15:21:35.916Z,3.57
2022-08-30T15:24:04.256Z,4.50
2022-08-30T15:26:31.525Z,3.70
2022-08-30T15:28:59.096Z,3.70
2022-08-30T15:31:28.560Z,3.60
2022-08-30T15:33:55.657Z,3.90
2022-08-30T15:36:24.374Z,3.77
2022-08-30T15:38:53.976Z,3.97
2022-08-30T15:41:20.957Z,3.90
2022-08-30T15:43:49.336Z,4.10
2022-08-30T15:46:22.687Z,3.60
2022-08-30T15:48:52.055Z,4.23
2022-08-30T15:51:19.286Z,3.30
2022-08-30T15:53:46.716Z,3.97
2022-08-30T15:56:14.184Z,3.90
2022-08-30T15:58:41.234Z,3.20
2022-08-30T16:01:08.267Z,4.43
2022-08-30T16:03:36.074Z,3.53
2022-08-30T16:06:04.863Z,3.50
2022-08-30T16:08:31.595Z,3.77
2022-08-30T16:10:58.357Z,4.43
2022-08-30T16:13:25.243Z,4.33
2022-08-30T16:15:52.152Z,4.10
2022-08-30T16:18:19.096Z,4.40
2022-08-30T16:20:45.937Z,4.27
2022-08-30T16:23:12.738Z,4.43
2022-08-30T16:25:41.235Z,3.97
2022-08-30T16:28:09.509Z,3.80
2022-08-30T16:30:36.880Z,5.10
2022-08-30T16:33:03.828Z,4.37
2022-08-30T16:35:30.634Z,4.90
2022-08-30T16:37:57.746Z,3.80
2022-08-30T16:40:24.572Z,4.30
2022-08-30T16:42:51.898Z,4.93
2022-08-30T16:45:19.260Z,4.40
2022-08-30T16:47:46.285Z,4.80
2022-08-30T16:50:13.245Z,5.23
2022-08-30T16:52:43.953Z,5.03
2022-08-30T16:55:11.031Z,4.37
2022-08-30T16:57:38.636Z,4.90
2022-08-30T17:00:13.291Z,5.77
2022-08-30T17:02:42.635Z,4.40
2022-08-30T17:05:21.746Z,5.13
2022-08-30T17:07:48.535Z,4.80
2022-08-30T17:10:15.495Z,5.20
2022-08-30T17:12:50.020Z,4.90
2022-08-30T17:15:19.986Z,5.10
2022-08-30T17:17:47.768Z,5.33
2022-08-30T17:20:15.556Z,4.90
2022-08-30T17:22:42.499Z,5.43
2022-08-30T17:25:13.317Z,5.73
2022-08-30T17:27:40.302Z,5.60
2022-08-30T17:30:08.796Z,5.90
2022-08-30T17:32:35.667Z,4.70
2022-08-30T17:35:02.737Z,5.17
2022-08-30T17:37:33.460Z,6.37
2022-08-30T17:40:00.746Z,7.17
2022-08-30T17:42:29.735Z,5.33
2022-08-30T17:44:58.029Z,5.30
2022-08-30T17:47:28.137Z,5.30
2022-08-30T17:49:55.652Z,5.60
2022-08-30T17:52:22.417Z,6.40
2022-08-30T17:54:50.578Z,5.27
2022-08-30T17:57:17.980Z,5.67
2022-08-30T17:59:45.719Z,5.63
2022-08-30T18:02:13.787Z,5.00
2022-08-30T18:04:42.008Z,6.10
2022-08-30T18:07:11.993Z,5.23
2022-08-30T18:09:39.822Z,5.33
2022-08-30T18:12:07.407Z,5.67
2022-08-30T18:14:34.207Z,4.83
2022-08-30T18:17:02.796Z,4.90
2022-08-30T18:19:30.458Z,4.47
2022-08-30T18:21:57.150Z,6.10
2022-08-30T18:24:24.594Z,5.00
2022-08-30T18:26:51.667Z,5.30
2022-08-30T18:29:29.384Z,5.43
2022-08-30T18:32:02.132Z,5.30
2022-08-30T18:34:29.200Z,5.30
2022-08-30T18:36:56.301Z,6.17
2022-08-30T18:39:23.223Z,5.87
2022-08-30T18:41:51.085Z,5.10
2022-08-30T18:44:28.262Z,5.27
2022-08-30T18:46:57.585Z,5.40
2022-08-30T18:49:27.966Z,5.07
2022-08-30T18:51:54.748Z,5.17
2022-08-30T18:54:21.822Z,4.30
2022-08-30T18:56:49.678Z,4.87
2022-08-30T18:59:17.463Z,5.70
2022-08-30T19:01:46.877Z,5.23
2022-08-30T19:04:29.658Z,5.57
2022-08-30T19:07:03.377Z,5.40
2022-08-30T19:09:30.591Z,5.27
2022-08-30T19:11:57.340Z,5.53
2022-08-30T19:14:24.273Z,6.30
2022-08-30T19:16:56.372Z,5.83
2022-08-30T19:19:23.705Z,6.00
2022-08-30T19:21:50.486Z,6.10
2022-08-30T19:24:17.915Z,5.77
2022-08-30T19:26:46.856Z,5.80
2022-08-30T19:29:14.473Z,6.70
2022-08-30T19:31:42.300Z,5.13
2022-08-30T19:34:09.168Z,5.90
2022-08-30T19:36:36.273Z,5.37
2022-08-30T19:39:04.066Z,5.30
2022-08-30T19:41:31.026Z,6.20
2022-08-30T19:43:58.758Z,6.40
2022-08-30T19:46:30.008Z,5.87
2022-08-30T19:49:01.193Z,5.90
2022-08-30T19:51:28.268Z,6.40
2022-08-30T19:53:56.445Z,6.37
2022-08-30T19:56:26.636Z,4.90
2022-08-30T19:58:54.054Z,5.53
2022-08-30T20:01:32.719Z,6.73
2022-08-30T20:04:02.163Z,5.60
2022-08-30T20:06:30.041Z,6.57
2022-08-30T20:08:58.244Z,6.40
2022-08-30T20:11:28.456Z,5.43
2022-08-30T20:13:56.128Z,6.27
2022-08-30T20:16:35.546Z,5.97
2022-08-30T20:19:06.263Z,6.40
2022-08-30T20:21:33.291Z,5.90
2022-08-30T20:24:01.028Z,6.40
2022-08-30T20:26:33.879Z,6.13
2022-08-30T20:29:02.780Z,5.10
2022-08-30T20:31:29.631Z,6.13
2022-08-30T20:33:56.407Z,5.60
2022-08-30T20:36:23.106Z,5.47
2022-08-30T20:38:50.225Z,6.80
2022-08-30T20:41:18.422Z,6.07
2022-08-30T20:43:45.832Z,5.00
2022-08-30T20:46:16.014Z,5.33
2022-08-30T20:48:43.596Z,5.47
2022-08-30T20:51:12.734Z,5.43
2022-08-30T20:53:39.450Z,5.80
2022-08-30T20:56:11.878Z,5.40
2022-08-30T20:58:38.550Z,5.87
2022-08-30T21:01:08.292Z,5.87
2022-08-30T21:03:34.956Z,6.00
2022-08-30T21:06:01.760Z,6.10
2022-08-30T21:08:28.462Z,5.43
2022-08-30T21:10:55.279Z,6.30
2022-08-30T21:13:22.476Z,5.87
2022-08-30T21:15:54.791Z,5.53
2022-08-30T21:18:22.035Z,5.00
2022-08-30T21:20:48.712Z,5.80
2022-08-30T21:23:15.351Z,5.77
2022-08-30T21:25:42.962Z,5.77
2022-08-30T21:28:10.134Z,6.40
2022-08-30T21:30:37.594Z,5.50
2022-08-30T21:33:05.959Z,5.57
2022-08-30T21:35:51.585Z,5.80
2022-08-30T21:38:19.095Z,6.33
2022-08-30T21:40:46.963Z,6.40
2022-08-30T21:43:13.825Z,5.80
2022-08-30T21:45:42.130Z,6.07
2022-08-30T21:48:10.306Z,6.60
2022-08-30T21:50:43.876Z,5.43
2022-08-30T21:53:10.763Z,5.40
2022-08-30T21:55:38.671Z,5.83
2022-08-30T21:58:05.446Z,5.87
2022-08-30T22:00:33.673Z,5.73
2022-08-30T22:03:00.555Z,6.50
2022-08-30T22:05:27.327Z,5.60
2022-08-30T22:07:54.010Z,5.40
2022-08-30T22:10:21.242Z,5.80
2022-08-30T22:12:48.011Z,6.53
2022-08-30T22:15:14.817Z,6.03
2022-08-30T22:17:43.167Z,6.37
2022-08-30T22:20:10.333Z,6.07
2022-08-30T22:22:37.980Z,6.00
2022-08-30T22:25:05.039Z,6.50
2022-08-30T22:27:31.725Z,6.10
2022-08-30T22:29:58.389Z,6.17
2022-08-30T22:32:25.036Z,6.77
2022-08-30T22:34:51.701Z,5.70
2022-08-30T22:37:18.466Z,6.07
2022-08-30T22:39:45.127Z,7.10
2022-08-30T22:42:11.803Z,6.07
2022-08-30T22:44:38.476Z,7.23
2022-08-30T22:47:05.250Z,6.40
2022-08-30T22:49:32.017Z,5.80
2022-08-30T22:51:58.675Z,5.80
2022-08-30T22:54:25.489Z,6.30
2022-08-30T22:56:53.428Z,6.40
2022-08-30T22:59:20.099Z,6.10
2022-08-30T23:01:49.275Z,6.47
2022-08-30T23:04:16.235Z,6.80
2022-08-30T23:06:49.943Z,6.00
2022-08-30T23:09:17.294Z,6.10
2022-08-30T23:11:43.968Z,6.23
2022-08-30T23:14:10.851Z,6.30
2022-08-30T23:16:38.036Z,6.87
2022-08-30T23:19:05.013Z,5.90
2022-08-30T23:21:31.777Z,6.23
2022-08-30T23:24:18.115Z,6.90
2022-08-30T23:27:04.111Z,7.30
2022-08-30T23:29:50.331Z,6.83
2022-08-30T23:32:35.521Z,6.13
2022-08-30T23:35:29.534Z,7.33
2022-08-30T23:38:19.056Z,6.13
2022-08-30T23:41:04.165Z,6.87
2022-08-30T23:43:49.595Z,6.77
2022-08-30T23:46:34.816Z,6.67
2022-08-30T23:49:20.329Z,5.80
2022-08-30T23:52:06.095Z,7.30
2022-08-30T23:54:51.515Z,7.23
2022-08-30T23:57:42.256Z,7.90
